UBBB/BAK METAR and TAF weather

Enter ICAO airport designator
Station Type Date Time Source
UBBB METAR 2021/09/23 18:30 UTC NOAA

UBBB 231830Z 32012KT 9999 BKN009 BKN019 21/19 Q1006 R88/CLRD// NOSIG


Station Type Date Time Source
UBBB Decoded METAR 2021/09/23 18:30 UTC NOAA

Baku / Bine Airport, Azerbaijan (UBBB) 40-27N 050-04E -1M
Sep 23, 2021 - 02:30 PM EDT / 2021.09.23 1830 UTC
Wind: from the NW (320 degrees) at 14 MPH (12 KT):0
Visibility: greater than 7 mile(s):0
Sky conditions: mostly cloudy
Temperature: 69 F (21 C)
Dew Point: 66 F (19 C)
Relative Humidity: 88%
Pressure (altimeter): 29.71 in. Hg (1006 hPa)
ob: UBBB 231830Z 32012KT 9999 BKN009 BKN019 21/19 Q1006 R88/CLRD// NOSIG
cycle: 18

Station Type Date Time Source
UBBB TAF 2021/09/23 18:30 UTC NOAA

TAF UBBB 231704Z 2318/2418 34016KT 9999 BKN020 TX25/2412Z TN18/2402Z
TEMPO 2318/2406 SCT010
BECMG 2408/2410 35020G30KT
TEMPO 2410/2418 34026G36KT -SHRA SCT012 SCT040CB BKN040

Example: see airport list